Time;durP1;ratioP1;P1;durP2;ratioP2;P2;SDS_P1;SDS_P2;PMS_P1;PMS_P2;Temp;Humidity;BMP_temperature;BMP_pressure;BME280_temperature;BME280_humidity;BME280_pressure;Samples;Min_cycle;Max_cycle;Signal;HPM_P1;HPM_P2
2024/03/20 00:00:14;;;;;;;11.27;9.57;;;6.50;93.60;;;;;;4968772;28;20213;-59
2024/03/20 00:02:40;;;;;;;9.53;8.07;;;6.50;93.60;;;;;;4968989;28;20262;-59
2024/03/20 00:05:06;;;;;;;14.00;9.30;;;6.50;93.70;;;;;;4968998;28;20515;-57
2024/03/20 00:07:32;;;;;;;12.93;9.40;;;6.50;93.90;;;;;;4968796;28;20657;-59
2024/03/20 00:09:58;;;;;;;11.93;9.17;;;6.50;94.50;;;;;;4968252;28;21139;-60
2024/03/20 00:12:23;;;;;;;10.30;8.53;;;6.50;94.30;;;;;;4968788;28;20217;-60
2024/03/20 00:14:49;;;;;;;11.23;8.00;;;6.50;94.40;;;;;;4967765;28;20598;-61
2024/03/20 00:17:15;;;;;;;10.47;8.53;;;6.50;94.40;;;;;;4970329;28;20321;-56
2024/03/20 00:19:41;;;;;;;17.40;8.93;;;6.50;94.70;;;;;;4972606;28;20520;-54
2024/03/20 00:22:06;;;;;;;10.20;9.20;;;6.50;94.90;;;;;;4973557;28;20425;-57
2024/03/20 00:24:32;;;;;;;11.30;8.23;;;6.50;94.80;;;;;;4971942;28;20217;-58
2024/03/20 00:26:58;;;;;;;11.20;9.90;;;6.40;94.60;;;;;;4973122;28;20240;-57
2024/03/20 00:29:24;;;;;;;12.17;8.97;;;6.40;94.80;;;;;;4970567;28;20445;-59
2024/03/20 00:31:52;;;;;;;9.93;8.47;;;6.40;95.10;;;;;;4980573;28;20710;-59
2024/03/20 00:34:18;;;;;;;11.07;8.30;;;6.40;95.30;;;;;;4972838;28;20201;-59
2024/03/20 00:36:44;;;;;;;11.80;8.73;;;6.30;95.20;;;;;;4972541;28;20956;-57
2024/03/20 00:39:09;;;;;;;11.07;9.87;;;6.30;95.40;;;;;;4973128;28;20464;-59
2024/03/20 00:41:35;;;;;;;11.63;9.20;;;6.30;95.80;;;;;;4972885;28;20182;-58
2024/03/20 00:44:00;;;;;;;9.90;8.90;;;6.20;95.70;;;;;;4971853;28;20279;-59
2024/03/20 00:46:26;;;;;;;9.17;8.17;;;6.10;95.90;;;;;;4964181;28;20192;-55
2024/03/20 00:48:52;;;;;;;12.97;8.97;;;6.10;96.10;;;;;;4973044;28;20204;-56
2024/03/20 00:51:17;;;;;;;10.27;8.40;;;6.00;96.10;;;;;;4973101;28;20904;-57
2024/03/20 00:53:43;;;;;;;15.93;9.57;;;6.00;96.40;;;;;;4972602;28;20591;-53
2024/03/20 00:56:09;;;;;;;11.00;9.50;;;5.90;96.50;;;;;;4968298;28;20205;-57
2024/03/20 00:58:34;;;;;;;12.20;9.20;;;5.90;97.10;;;;;;4972173;28;20708;-57
2024/03/20 01:01:00;;;;;;;13.17;9.13;;;5.80;97.40;;;;;;4968836;28;20196;-57
2024/03/20 01:03:25;;;;;;;12.10;9.40;;;5.80;97.10;;;;;;4972679;28;20711;-58
2024/03/20 01:05:52;;;;;;;13.10;9.93;;;5.80;97.30;;;;;;4967913;28;20197;-57
2024/03/20 01:08:18;;;;;;;11.70;8.93;;;5.70;97.40;;;;;;4954919;28;20213;-55
2024/03/20 01:10:44;;;;;;;11.87;9.37;;;5.70;97.70;;;;;;4972866;28;20902;-54
2024/03/20 01:13:10;;;;;;;11.47;9.50;;;5.70;97.90;;;;;;4971495;28;20440;-64
2024/03/20 01:15:36;;;;;;;13.00;9.40;;;5.60;98.10;;;;;;4953682;28;20464;-58
2024/03/20 01:18:03;;;;;;;10.97;9.40;;;5.60;98.50;;;;;;4972144;28;20248;-57
2024/03/20 01:20:28;;;;;;;11.63;10.40;;;5.50;98.60;;;;;;4971950;28;20635;-58
2024/03/20 01:22:54;;;;;;;13.27;9.53;;;5.50;98.70;;;;;;4971570;28;20424;-55
2024/03/20 01:25:19;;;;;;;12.53;9.50;;;5.50;99.00;;;;;;4972431;28;20193;-56
2024/03/20 01:27:45;;;;;;;10.23;8.00;;;5.40;99.40;;;;;;4971548;28;20217;-57
2024/03/20 01:30:12;;;;;;;13.00;10.40;;;5.40;99.30;;;;;;4972793;28;20559;-57
2024/03/20 01:32:38;;;;;;;12.33;9.13;;;5.40;99.30;;;;;;4972219;28;20425;-58
2024/03/20 01:35:04;;;;;;;13.63;10.00;;;5.40;99.50;;;;;;4972100;28;20467;-56
2024/03/20 01:37:30;;;;;;;10.50;9.30;;;5.30;99.70;;;;;;4972438;28;20237;-54
2024/03/20 01:39:56;;;;;;;13.60;8.63;;;5.30;99.90;;;;;;4970759;28;20931;-57
2024/03/20 01:42:21;;;;;;;11.40;8.90;;;5.30;99.90;;;;;;4966464;28;20309;-54
2024/03/20 01:44:47;;;;;;;10.90;8.63;;;5.20;99.90;;;;;;4971185;28;20194;-56
2024/03/20 01:47:13;;;;;;;13.53;10.27;;;5.20;99.90;;;;;;4972287;28;20205;-55
2024/03/20 01:49:38;;;;;;;12.00;9.43;;;5.20;99.90;;;;;;4971919;28;20182;-58
2024/03/20 01:52:06;;;;;;;16.07;10.33;;;5.20;99.90;;;;;;4972006;28;20181;-59
2024/03/20 01:54:32;;;;;;;12.30;10.23;;;5.20;99.90;;;;;;4972422;28;20189;-56
2024/03/20 01:56:57;;;;;;;12.77;9.67;;;5.20;99.90;;;;;;4971637;28;20476;-57
2024/03/20 01:59:23;;;;;;;12.97;10.30;;;5.10;99.90;;;;;;4972260;28;20421;-56
2024/03/20 02:01:49;;;;;;;13.83;9.37;;;5.10;99.90;;;;;;4970624;28;20185;-54
2024/03/20 02:04:14;;;;;;;12.57;8.50;;;5.10;99.90;;;;;;4972272;28;20200;-54
2024/03/20 02:06:40;;;;;;;13.50;10.40;;;5.10;99.90;;;;;;4974852;28;20228;-55
2024/03/20 02:09:07;;;;;;;14.10;9.50;;;5.10;99.90;;;;;;4945580;28;20209;-55
2024/03/20 02:11:33;;;;;;;12.20;9.53;;;5.10;99.90;;;;;;4952109;28;20193;-56
2024/03/20 02:13:59;;;;;;;14.17;9.93;;;5.10;99.90;;;;;;4965357;28;20484;-57
2024/03/20 02:16:27;;;;;;;12.20;10.27;;;5.10;99.90;;;;;;4971859;28;20500;-54
2024/03/20 02:18:53;;;;;;;10.87;8.50;;;5.10;99.90;;;;;;4970839;28;20451;-56
2024/03/20 02:21:23;;;;;;;15.40;10.80;;;5.10;99.90;;;;;;4971973;28;20437;-55
2024/03/20 02:23:49;;;;;;;13.90;9.50;;;5.10;99.90;;;;;;4971449;28;20991;-58
2024/03/20 02:26:15;;;;;;;13.93;9.90;;;5.10;99.90;;;;;;4969111;28;20429;-55
2024/03/20 02:28:43;;;;;;;17.30;10.00;;;5.10;99.90;;;;;;4971655;28;20429;-58
2024/03/20 02:31:09;;;;;;;10.83;9.63;;;5.20;99.90;;;;;;4971914;28;20425;-58
2024/03/20 02:33:36;;;;;;;11.00;8.23;;;5.20;99.90;;;;;;4970378;28;20477;-57
2024/03/20 02:36:03;;;;;;;12.30;9.70;;;5.20;99.90;;;;;;4971373;28;20476;-58
2024/03/20 02:38:37;;;;;;;13.37;10.67;;;5.20;99.90;;;;;;4971735;28;20543;-58
2024/03/20 02:41:04;;;;;;;15.10;9.77;;;5.30;99.90;;;;;;4971634;28;20421;-58
2024/03/20 02:43:29;;;;;;;10.43;8.63;;;5.30;99.90;;;;;;4971511;28;20425;-59
2024/03/20 02:45:55;;;;;;;12.97;9.90;;;5.30;99.90;;;;;;4971295;28;20448;-58
2024/03/20 02:48:21;;;;;;;14.30;10.13;;;5.30;99.90;;;;;;4971836;28;20209;-57
2024/03/20 02:50:47;;;;;;;13.40;10.50;;;5.30;99.90;;;;;;4970417;28;20197;-56
2024/03/20 02:53:13;;;;;;;13.57;10.50;;;5.40;99.90;;;;;;4968899;28;20441;-58
2024/03/20 02:55:41;;;;;;;15.23;10.37;;;5.40;99.90;;;;;;4974471;28;20241;-57
2024/03/20 02:58:07;;;;;;;15.00;10.60;;;5.30;99.90;;;;;;4964011;28;20450;-59
2024/03/20 03:00:32;;;;;;;15.33;11.30;;;5.40;99.90;;;;;;4974905;28;20425;-58
2024/03/20 03:02:58;;;;;;;14.50;11.90;;;5.30;99.90;;;;;;4941439;28;20190;-58
2024/03/20 03:05:26;;;;;;;16.47;10.30;;;5.40;99.90;;;;;;4974971;28;20417;-55
2024/03/20 03:07:52;;;;;;;10.60;9.20;;;5.40;99.90;;;;;;4974841;28;20471;-58
2024/03/20 03:10:24;;;;;;;20.83;10.80;;;5.40;99.90;;;;;;4970297;28;20430;-57
2024/03/20 03:12:51;;;;;;;11.77;9.67;;;5.40;99.90;;;;;;4972411;28;20433;-58
2024/03/20 03:15:18;;;;;;;14.70;11.30;;;5.40;99.90;;;;;;4974301;28;20507;-58
2024/03/20 03:17:49;;;;;;;14.43;9.93;;;5.40;99.90;;;;;;4974439;28;20457;-59
2024/03/20 03:20:14;;;;;;;15.50;10.60;;;5.40;99.90;;;;;;4974297;28;20916;-58
2024/03/20 03:22:42;;;;;;;14.20;10.73;;;5.40;99.90;;;;;;4974572;28;20417;-60
2024/03/20 03:25:09;;;;;;;11.63;9.57;;;5.40;99.90;;;;;;4969669;28;20189;-56
2024/03/20 03:27:35;;;;;;;16.73;11.83;;;5.50;99.90;;;;;;4974289;28;20441;-58
2024/03/20 03:30:02;;;;;;;12.30;9.73;;;5.40;99.90;;;;;;4973982;28;20516;-58
2024/03/20 03:32:28;;;;;;;14.90;11.03;;;5.50;99.90;;;;;;4974666;28;20421;-55
2024/03/20 03:34:54;;;;;;;20.37;11.57;;;5.50;99.90;;;;;;4974348;28;20938;-57
2024/03/20 03:37:20;;;;;;;14.63;11.03;;;5.40;99.90;;;;;;4974279;28;20201;-58
2024/03/20 03:39:45;;;;;;;18.97;11.47;;;5.40;99.90;;;;;;4973929;28;20440;-59
2024/03/20 03:42:15;;;;;;;15.27;11.07;;;5.40;99.90;;;;;;4966316;28;20648;-57
2024/03/20 03:44:41;;;;;;;18.63;11.23;;;5.50;99.90;;;;;;4974014;28;20275;-59
2024/03/20 03:47:07;;;;;;;14.20;10.03;;;5.40;99.90;;;;;;4973355;28;20983;-57
2024/03/20 03:49:33;;;;;;;15.90;11.10;;;5.40;99.90;;;;;;4973772;28;20444;-55
2024/03/20 03:51:59;;;;;;;14.97;11.00;;;5.40;99.90;;;;;;4973726;28;20652;-58
2024/03/20 03:54:24;;;;;;;12.90;10.67;;;5.40;99.90;;;;;;4973777;28;20429;-57
2024/03/20 03:56:50;;;;;;;14.30;10.70;;;5.40;99.90;;;;;;4970432;28;20225;-55
2024/03/20 03:59:16;;;;;;;14.40;10.60;;;5.40;99.90;;;;;;4973848;28;20663;-58
2024/03/20 04:01:43;;;;;;;14.27;10.50;;;5.50;99.90;;;;;;4940784;28;20428;-59
2024/03/20 04:04:09;;;;;;;12.33;9.87;;;5.50;99.90;;;;;;4972268;28;20564;-59
2024/03/20 04:06:35;;;;;;;14.73;10.47;;;5.60;99.90;;;;;;4957196;28;20456;-59
2024/03/20 04:09:01;;;;;;;16.60;10.87;;;5.50;99.90;;;;;;4957879;28;20209;-58
2024/03/20 04:11:26;;;;;;;14.20;9.83;;;5.50;99.90;;;;;;4965427;28;20805;-58
2024/03/20 04:13:52;;;;;;;12.77;11.10;;;5.60;99.90;;;;;;4947438;28;20480;-58
2024/03/20 04:16:18;;;;;;;14.10;9.87;;;5.60;99.90;;;;;;4964202;28;20244;-57
2024/03/20 04:18:44;;;;;;;13.77;11.30;;;5.60;99.90;;;;;;4972736;28;20209;-58
2024/03/20 04:21:10;;;;;;;19.73;10.83;;;5.60;99.90;;;;;;4972957;28;20430;-58
2024/03/20 04:23:35;;;;;;;14.20;10.30;;;5.60;99.90;;;;;;4973539;28;20886;-60
2024/03/20 04:26:01;;;;;;;17.63;11.87;;;5.50;99.90;;;;;;4973164;28;20217;-59
2024/03/20 04:28:27;;;;;;;15.43;11.37;;;5.50;99.90;;;;;;4973599;28;20217;-58
2024/03/20 04:30:52;;;;;;;13.10;11.27;;;5.50;99.90;;;;;;4973339;28;20197;-58
2024/03/20 04:33:18;;;;;;;16.03;12.10;;;5.50;99.90;;;;;;4966217;28;20301;-58
2024/03/20 04:35:44;;;;;;;13.43;10.50;;;5.50;99.90;;;;;;4970932;28;20222;-57
2024/03/20 04:38:09;;;;;;;15.43;11.07;;;5.50;99.90;;;;;;4966133;28;20205;-59
2024/03/20 04:40:35;;;;;;;16.43;13.00;;;5.50;99.90;;;;;;4973358;28;20185;-59
2024/03/20 04:43:01;;;;;;;15.80;10.77;;;5.50;99.90;;;;;;4955000;28;20189;-58
2024/03/20 04:45:26;;;;;;;14.80;10.13;;;5.50;99.90;;;;;;4964719;28;20497;-58
2024/03/20 04:47:52;;;;;;;13.43;10.33;;;5.50;99.90;;;;;;4970672;28;20704;-58
2024/03/20 04:50:17;;;;;;;16.60;11.23;;;5.60;99.90;;;;;;4970301;28;20604;-56
2024/03/20 04:52:43;;;;;;;15.90;10.80;;;5.50;99.90;;;;;;4971723;28;20193;-56
2024/03/20 04:55:09;;;;;;;15.43;11.93;;;5.50;99.90;;;;;;4967250;28;20256;-58
2024/03/20 04:57:35;;;;;;;14.67;11.23;;;5.50;99.90;;;;;;4971813;28;20633;-58
2024/03/20 05:00:00;;;;;;;22.37;12.13;;;5.50;99.90;;;;;;4964608;28;20177;-56
2024/03/20 05:02:26;;;;;;;15.30;10.97;;;5.50;99.90;;;;;;4969053;28;20937;-59
2024/03/20 05:04:52;;;;;;;18.63;12.73;;;5.60;99.90;;;;;;4969843;28;20679;-57
2024/03/20 05:07:17;;;;;;;15.90;11.77;;;5.50;99.90;;;;;;4970830;28;20198;-59
2024/03/20 05:09:44;;;;;;;14.90;12.50;;;5.50;99.90;;;;;;4970510;28;20181;-57
2024/03/20 05:12:09;;;;;;;16.40;11.87;;;5.50;99.90;;;;;;4964848;28;20193;-57
2024/03/20 05:14:35;;;;;;;15.60;11.20;;;5.50;99.90;;;;;;4969502;28;20444;-57
2024/03/20 05:17:00;;;;;;;19.73;10.67;;;5.50;99.90;;;;;;4961299;28;20352;-57
2024/03/20 05:19:29;;;;;;;15.37;11.37;;;5.50;99.90;;;;;;4965788;28;20640;-58
2024/03/20 05:21:55;;;;;;;16.20;10.73;;;5.50;99.90;;;;;;4967408;28;20566;-58
2024/03/20 05:24:20;;;;;;;13.00;11.63;;;5.50;99.90;;;;;;4970758;28;20425;-57
2024/03/20 05:26:46;;;;;;;16.47;12.17;;;5.50;99.90;;;;;;4970720;28;20221;-58
2024/03/20 05:29:12;;;;;;;16.10;12.23;;;5.50;99.90;;;;;;4972207;28;20185;-57
2024/03/20 05:31:42;;;;;;;17.93;12.30;;;5.50;99.90;;;;;;4970320;28;20559;-58
2024/03/20 05:34:10;;;;;;;18.17;11.07;;;5.60;99.90;;;;;;4964571;28;20442;-61
2024/03/20 05:36:36;;;;;;;15.60;12.00;;;5.50;99.90;;;;;;4963298;28;20559;-57
2024/03/20 05:39:02;;;;;;;16.10;11.20;;;5.50;99.90;;;;;;4967427;28;20857;-58
2024/03/20 05:41:28;;;;;;;17.00;13.13;;;5.50;99.90;;;;;;4972258;28;21006;-58
2024/03/20 05:43:53;;;;;;;15.60;11.50;;;5.60;99.90;;;;;;4962582;28;20532;-59
2024/03/20 05:46:19;;;;;;;16.20;11.77;;;5.60;99.90;;;;;;4970888;28;20185;-59
2024/03/20 05:48:44;;;;;;;13.83;11.30;;;5.60;99.90;;;;;;4964227;28;20247;-59
2024/03/20 05:51:10;;;;;;;14.63;12.10;;;5.70;99.90;;;;;;4960937;28;20197;-58
2024/03/20 05:53:36;;;;;;;17.20;12.00;;;5.60;99.90;;;;;;4970894;28;20193;-58
2024/03/20 05:56:01;;;;;;;16.90;12.80;;;5.60;99.90;;;;;;4971829;28;20352;-58
2024/03/20 05:58:27;;;;;;;14.93;12.57;;;5.70;99.90;;;;;;4963890;28;20284;-58
2024/03/20 06:00:52;;;;;;;17.63;12.07;;;5.60;99.90;;;;;;4965042;28;20193;-58
2024/03/20 06:03:18;;;;;;;15.00;12.13;;;5.70;99.90;;;;;;4970609;28;20244;-58
2024/03/20 06:05:45;;;;;;;14.30;11.70;;;5.80;99.90;;;;;;4972093;28;20212;-57
2024/03/20 06:08:11;;;;;;;18.70;13.00;;;5.90;99.90;;;;;;4971935;28;20502;-57
2024/03/20 06:10:37;;;;;;;13.93;12.40;;;6.00;99.90;;;;;;4972528;28;20888;-56
2024/03/20 06:13:02;;;;;;;15.33;12.50;;;6.10;99.90;;;;;;4964421;28;20193;-57
2024/03/20 06:15:28;;;;;;;17.90;11.83;;;6.00;99.90;;;;;;4970139;28;20704;-57
2024/03/20 06:17:53;;;;;;;14.17;12.30;;;6.00;99.90;;;;;;4969739;28;20229;-58
2024/03/20 06:20:20;;;;;;;16.10;11.57;;;6.20;99.90;;;;;;4969763;28;20641;-56
2024/03/20 06:22:45;;;;;;;15.47;12.10;;;6.10;99.90;;;;;;4971520;28;20510;-57
2024/03/20 06:25:12;;;;;;;16.23;12.60;;;6.30;99.90;;;;;;4967788;28;20433;-57
2024/03/20 06:27:38;;;;;;;19.80;12.20;;;6.30;99.90;;;;;;4971682;28;20197;-58
2024/03/20 06:30:11;;;;;;;16.20;10.50;;;6.50;99.90;;;;;;4961037;28;20456;-58
2024/03/20 06:32:38;;;;;;;17.83;12.47;;;6.60;99.90;;;;;;4973403;28;20457;-58
2024/03/20 06:35:04;;;;;;;16.50;12.80;;;6.70;99.90;;;;;;4974615;28;20775;-58
2024/03/20 06:37:30;;;;;;;14.57;11.47;;;6.90;99.90;;;;;;4969048;28;20819;-58
2024/03/20 06:39:56;;;;;;;13.70;11.77;;;6.80;99.90;;;;;;4971760;28;20426;-58
2024/03/20 06:42:21;;;;;;;18.30;12.20;;;6.80;99.90;;;;;;4972985;28;20206;-58
2024/03/20 06:44:48;;;;;;;19.80;13.70;;;7.00;99.90;;;;;;4965772;28;20265;-58
2024/03/20 06:47:14;;;;;;;21.20;13.50;;;7.10;99.90;;;;;;4970635;28;21331;-59
2024/03/20 06:49:40;;;;;;;16.27;12.43;;;7.20;99.90;;;;;;4974618;28;20802;-57
2024/03/20 06:52:06;;;;;;;16.77;12.27;;;7.30;99.90;;;;;;4974055;28;20424;-59
2024/03/20 06:54:31;;;;;;;19.93;13.07;;;7.40;99.90;;;;;;4967371;28;20207;-58
2024/03/20 06:57:03;;;;;;;15.37;12.60;;;7.20;99.90;;;;;;4973817;28;20214;-58
2024/03/20 06:59:30;;;;;;;17.33;12.17;;;7.40;99.90;;;;;;4965384;28;20281;-57
2024/03/20 07:01:58;;;;;;;17.83;12.30;;;7.50;99.90;;;;;;4968647;28;20504;-59
2024/03/20 07:04:25;;;;;;;17.07;12.50;;;7.70;99.90;;;;;;4965986;28;20445;-58
2024/03/20 07:06:51;;;;;;;17.50;12.30;;;7.90;99.90;;;;;;4956690;28;20449;-59
2024/03/20 07:09:17;;;;;;;17.50;11.87;;;8.10;99.90;;;;;;4973035;28;20931;-59
2024/03/20 07:11:43;;;;;;;20.30;12.67;;;8.70;99.90;;;;;;4962235;28;20448;-58
2024/03/20 07:14:08;;;;;;;17.30;12.40;;;8.70;99.90;;;;;;4969779;28;20204;-59
2024/03/20 07:16:34;;;;;;;22.83;12.17;;;8.50;99.90;;;;;;4973858;28;20880;-57
2024/03/20 07:19:00;;;;;;;17.33;12.43;;;8.90;99.90;;;;;;4973614;28;20188;-58
2024/03/20 07:21:25;;;;;;;14.90;11.40;;;8.60;99.80;;;;;;4960659;28;20193;-58
2024/03/20 07:23:51;;;;;;;21.63;13.90;;;8.70;99.90;;;;;;4974267;28;20239;-58
2024/03/20 07:26:17;;;;;;;15.03;12.57;;;9.00;98.90;;;;;;4973898;28;20188;-57
2024/03/20 07:28:43;;;;;;;17.07;12.77;;;9.10;99.90;;;;;;4974519;28;20205;-59
2024/03/20 07:31:09;;;;;;;21.03;12.07;;;9.30;99.10;;;;;;4974390;28;20425;-58
2024/03/20 07:33:35;;;;;;;15.70;11.50;;;9.20;99.10;;;;;;4973721;28;20428;-57
2024/03/20 07:36:01;;;;;;;16.33;12.00;;;8.90;99.10;;;;;;4973538;28;20464;-59
2024/03/20 07:38:26;;;;;;;14.67;12.10;;;8.80;99.70;;;;;;4973906;28;20974;-59
2024/03/20 07:40:52;;;;;;;17.80;13.07;;;9.40;98.80;;;;;;4970350;28;20274;-59
2024/03/20 07:43:18;;;;;;;15.63;12.50;;;9.50;97.90;;;;;;4973530;28;20224;-58
2024/03/20 07:45:44;;;;;;;20.77;14.53;;;9.50;98.00;;;;;;4973934;28;20428;-59
2024/03/20 07:48:09;;;;;;;20.63;13.60;;;10.10;96.30;;;;;;4963387;28;20300;-58
2024/03/20 07:50:35;;;;;;;23.73;13.00;;;9.90;97.00;;;;;;4973271;28;20215;-59
2024/03/20 07:53:00;;;;;;;16.53;12.60;;;10.30;95.30;;;;;;4966509;28;20243;-59
2024/03/20 07:55:26;;;;;;;16.97;13.97;;;10.90;95.60;;;;;;4957654;28;20208;-59
2024/03/20 07:57:52;;;;;;;14.70;12.60;;;11.30;92.10;;;;;;4967798;28;20212;-58
2024/03/20 08:00:27;;;;;;;19.63;12.67;;;11.20;92.20;;;;;;4973449;28;20197;-59
2024/03/20 08:02:52;;;;;;;16.90;13.30;;;11.10;92.60;;;;;;4970709;28;20212;-59
2024/03/20 08:05:18;;;;;;;18.67;13.97;;;11.60;92.80;;;;;;4973383;28;20429;-59
2024/03/20 08:07:43;;;;;;;25.87;15.17;;;11.70;91.00;;;;;;4973595;28;20295;-59
2024/03/20 08:10:09;;;;;;;20.50;14.57;;;11.80;90.90;;;;;;4973491;28;20240;-59
2024/03/20 08:12:36;;;;;;;16.77;13.53;;;11.40;91.20;;;;;;4964422;28;20189;-59
2024/03/20 08:15:03;;;;;;;16.90;13.93;;;11.40;90.90;;;;;;4970893;28;20443;-59
2024/03/20 08:17:29;;;;;;;17.80;13.70;;;11.60;90.40;;;;;;4963767;28;20476;-58
2024/03/20 08:19:54;;;;;;;18.80;13.40;;;11.60;86.50;;;;;;4971597;28;20923;-59
2024/03/20 08:22:20;;;;;;;17.23;14.33;;;11.50;86.80;;;;;;4971108;28;20240;-58
2024/03/20 08:24:46;;;;;;;17.37;13.80;;;12.00;84.60;;;;;;4972394;28;20641;-60
2024/03/20 08:27:12;;;;;;;20.90;14.03;;;12.30;83.50;;;;;;4972702;28;20214;-58
2024/03/20 08:29:38;;;;;;;16.80;12.97;;;13.00;83.60;;;;;;4968152;28;20449;-60
2024/03/20 08:32:05;;;;;;;17.37;13.53;;;12.80;78.60;;;;;;4972063;28;20194;-61
2024/03/20 08:34:31;;;;;;;18.00;13.37;;;12.70;77.50;;;;;;4969247;28;20223;-60
2024/03/20 08:36:56;;;;;;;18.43;15.10;;;12.40;76.70;;;;;;4965774;28;20471;-60
2024/03/20 08:39:22;;;;;;;15.30;12.50;;;12.50;77.60;;;;;;4970905;28;21022;-60
2024/03/20 08:41:48;;;;;;;16.47;13.40;;;12.80;75.50;;;;;;4973424;28;20272;-60
2024/03/20 08:44:13;;;;;;;16.40;14.80;;;13.00;73.90;;;;;;4972979;28;20252;-59
2024/03/20 08:46:41;;;;;;;16.17;13.10;;;14.50;75.10;;;;;;4972903;28;20241;-58
2024/03/20 08:49:10;;;;;;;15.17;12.33;;;15.30;69.00;;;;;;4970200;28;20719;-59
2024/03/20 08:51:36;;;;;;;15.80;13.43;;;15.30;67.40;;;;;;4972817;28;20431;-56
2024/03/20 08:54:02;;;;;;;14.40;11.77;;;16.60;66.90;;;;;;4966475;28;20796;-60
2024/03/20 08:56:28;;;;;;;16.77;13.20;;;16.10;59.80;;;;;;4972251;28;20659;-59
2024/03/20 08:58:53;;;;;;;16.73;12.67;;;14.60;60.80;;;;;;4970885;28;20472;-59
2024/03/20 09:01:19;;;;;;;14.80;12.13;;;14.00;61.30;;;;;;4969317;28;20193;-60
2024/03/20 09:03:45;;;;;;;14.30;12.60;;;14.40;60.50;;;;;;4971489;28;20189;-59
2024/03/20 09:06:10;;;;;;;12.37;11.17;;;14.40;63.70;;;;;;4972450;28;20699;-59
2024/03/20 09:08:36;;;;;;;16.70;12.07;;;14.80;61.30;;;;;;4965648;28;20220;-59
2024/03/20 09:11:02;;;;;;;16.23;12.80;;;14.90;59.30;;;;;;4972720;28;20196;-59
2024/03/20 09:13:29;;;;;;;17.43;12.53;;;14.70;60.10;;;;;;4962465;28;20216;-61
2024/03/20 09:15:55;;;;;;;13.77;10.47;;;15.30;57.70;;;;;;4971632;28;20511;-57
2024/03/20 09:18:21;;;;;;;13.57;11.83;;;15.30;57.10;;;;;;4961477;28;20545;-59
2024/03/20 09:20:46;;;;;;;14.73;10.83;;;14.90;56.90;;;;;;4971786;28;20520;-58
2024/03/20 09:23:12;;;;;;;12.50;11.00;;;14.70;57.50;;;;;;4970702;28;20259;-57
2024/03/20 09:25:38;;;;;;;13.97;11.47;;;15.20;56.80;;;;;;4970539;28;20235;-59
2024/03/20 09:28:04;;;;;;;12.97;11.07;;;15.50;56.20;;;;;;4969804;28;20971;-59
2024/03/20 09:30:30;;;;;;;13.40;12.00;;;15.40;55.80;;;;;;4966764;28;20186;-60
2024/03/20 09:32:56;;;;;;;12.93;11.10;;;14.90;58.30;;;;;;4971988;28;20693;-61
2024/03/20 09:35:22;;;;;;;10.43;9.33;;;15.30;57.80;;;;;;4972217;28;20209;-60
2024/03/20 09:37:48;;;;;;;12.57;11.30;;;15.70;55.70;;;;;;4968106;28;20449;-60
2024/03/20 09:40:21;;;;;;;18.50;11.43;;;16.40;55.20;;;;;;4968122;28;20182;-61
2024/03/20 09:42:50;;;;;;;13.33;9.67;;;17.20;54.00;;;;;;4968567;28;20231;-59
2024/03/20 09:45:15;;;;;;;14.30;11.50;;;15.70;55.40;;;;;;4961800;28;20425;-59
2024/03/20 09:47:43;;;;;;;18.33;11.57;;;15.70;57.20;;;;;;4968366;28;20527;-59
2024/03/20 09:50:14;;;;;;;13.20;10.97;;;16.50;56.00;;;;;;4962116;28;20192;-59
2024/03/20 09:52:40;;;;;;;13.67;9.90;;;16.80;56.20;;;;;;4970321;28;20432;-59
2024/03/20 09:55:16;;;;;;;15.53;9.67;;;16.30;54.30;;;;;;4971843;28;20413;-59
2024/03/20 09:57:44;;;;;;;12.40;10.30;;;15.90;56.70;;;;;;4963954;28;20266;-59
2024/03/20 10:00:16;;;;;;;10.87;9.83;;;16.00;56.10;;;;;;4970386;28;20425;-59
2024/03/20 10:02:46;;;;;;;15.70;10.87;;;15.90;56.60;;;;;;4971695;28;20452;-59
2024/03/20 10:05:18;;;;;;;14.43;9.33;;;16.10;56.10;;;;;;4976236;28;20462;-60
2024/03/20 10:07:44;;;;;;;9.43;8.43;;;16.60;57.20;;;;;;4975990;28;20530;-59
2024/03/20 10:10:13;;;;;;;11.30;10.13;;;16.00;56.60;;;;;;4976065;28;20836;-60
2024/03/20 10:12:40;;;;;;;11.10;9.30;;;15.70;56.10;;;;;;4950818;28;20934;-59
2024/03/20 10:15:10;;;;;;;9.50;8.10;;;15.80;58.60;;;;;;4975656;28;20933;-60
2024/03/20 10:17:37;;;;;;;12.23;8.37;;;15.90;58.70;;;;;;4969178;28;20454;-59
2024/03/20 10:20:19;;;;;;;15.53;8.17;;;15.90;59.50;;;;;;4975074;28;20418;-58
2024/03/20 10:22:45;;;;;;;13.00;8.73;;;16.10;58.90;;;;;;4966038;28;20431;-58
2024/03/20 10:25:13;;;;;;;9.00;7.33;;;15.70;61.00;;;;;;4973053;28;20417;-59
2024/03/20 10:27:40;;;;;;;15.33;8.97;;;15.90;61.40;;;;;;4971980;28;20781;-57
2024/03/20 10:30:17;;;;;;;9.47;7.83;;;15.70;63.40;;;;;;4976291;28;20479;-60
2024/03/20 10:32:50;;;;;;;13.10;8.73;;;15.80;64.40;;;;;;4972133;28;20424;-60
2024/03/20 10:35:21;;;;;;;11.70;9.03;;;15.80;65.70;;;;;;4975068;28;20817;-58
2024/03/20 10:37:47;;;;;;;13.30;8.60;;;15.60;66.10;;;;;;4972389;28;20474;-57
2024/03/20 10:40:17;;;;;;;12.03;10.30;;;15.30;63.90;;;;;;4971391;28;20536;-57
2024/03/20 10:42:47;;;;;;;10.30;7.70;;;15.50;65.90;;;;;;4972638;28;20493;-56
2024/03/20 10:45:13;;;;;;;10.17;8.43;;;15.50;65.90;;;;;;4973281;28;20831;-58
2024/03/20 10:47:42;;;;;;;13.70;8.87;;;15.60;67.20;;;;;;4971918;28;20544;-59
2024/03/20 10:50:16;;;;;;;14.70;7.77;;;15.70;68.60;;;;;;4974547;28;20753;-58
2024/03/20 10:52:43;;;;;;;9.87;8.03;;;15.60;67.60;;;;;;4973687;28;20442;-58
2024/03/20 10:55:15;;;;;;;11.60;9.37;;;16.10;67.20;;;;;;4974490;28;20476;-58
2024/03/20 10:57:41;;;;;;;10.00;8.47;;;15.70;66.60;;;;;;4966824;28;20853;-57
2024/03/20 11:00:19;;;;;;;11.07;8.50;;;16.10;67.30;;;;;;4972512;28;20426;-56
2024/03/20 11:02:46;;;;;;;12.63;8.73;;;16.10;66.90;;;;;;4970681;28;20532;-58
2024/03/20 11:05:33;;;;;;;10.47;7.63;;;16.20;67.40;;;;;;4974204;28;20433;-59
2024/03/20 11:08:00;;;;;;;13.20;9.03;;;16.60;66.40;;;;;;4974074;28;20440;-57
2024/03/20 11:10:29;;;;;;;11.00;8.50;;;16.60;66.20;;;;;;4972715;28;20422;-59
2024/03/20 11:12:56;;;;;;;12.80;8.13;;;16.70;65.60;;;;;;4972512;28;20812;-59
2024/03/20 11:15:27;;;;;;;12.63;9.27;;;16.80;65.30;;;;;;4969399;28;20492;-59
2024/03/20 11:17:52;;;;;;;13.37;8.90;;;16.70;65.80;;;;;;4952368;28;20460;-58
2024/03/20 11:20:33;;;;;;;12.60;10.23;;;17.00;63.60;;;;;;4968935;28;20983;-59
2024/03/20 11:23:26;;;;;;;13.03;8.90;;;16.60;66.30;;;;;;4973524;28;20262;-59
2024/03/20 11:25:52;;;;;;;11.53;8.00;;;16.80;66.40;;;;;;4968777;28;20928;-58
2024/03/20 11:28:19;;;;;;;11.87;8.03;;;16.60;68.00;;;;;;4974759;28;20454;-57
2024/03/20 11:30:49;;;;;;;11.60;8.93;;;16.70;68.20;;;;;;4973656;28;20843;-64
2024/03/20 11:33:15;;;;;;;13.17;9.70;;;16.80;68.40;;;;;;4981609;28;20422;-64
2024/03/20 11:35:41;;;;;;;18.73;9.37;;;16.90;70.00;;;;;;4972170;28;20511;-59
2024/03/20 11:38:13;;;;;;;12.57;9.67;;;17.20;68.50;;;;;;4974137;28;20300;-66
2024/03/20 11:40:39;;;;;;;11.07;9.57;;;17.10;68.50;;;;;;4974193;28;20429;-64
2024/03/20 11:43:06;;;;;;;12.80;9.70;;;17.10;69.40;;;;;;4973944;28;20420;-57
2024/03/20 11:45:34;;;;;;;13.00;8.43;;;17.10;69.60;;;;;;4973201;28;20227;-57
2024/03/20 11:48:00;;;;;;;13.30;8.07;;;17.40;67.80;;;;;;4974323;28;20467;-57
2024/03/20 11:50:26;;;;;;;11.50;9.20;;;17.80;67.10;;;;;;4974628;28;20440;-58
2024/03/20 11:52:52;;;;;;;11.77;9.30;;;17.70;67.40;;;;;;4973962;28;20440;-59
2024/03/20 11:55:21;;;;;;;11.87;9.50;;;17.50;67.00;;;;;;4973708;28;20214;-60
2024/03/20 11:57:46;;;;;;;11.77;8.87;;;17.30;67.60;;;;;;4974110;28;20916;-59
2024/03/20 12:00:14;;;;;;;13.57;9.83;;;17.70;66.60;;;;;;4971825;28;20549;-58
2024/03/20 12:02:40;;;;;;;14.70;9.63;;;17.80;66.20;;;;;;4971420;28;20608;-58
2024/03/20 12:05:11;;;;;;;14.30;9.07;;;17.90;66.90;;;;;;4972158;28;20471;-58
2024/03/20 12:07:37;;;;;;;17.40;10.63;;;17.80;65.70;;;;;;4973605;28;20449;-58
2024/03/20 12:10:03;;;;;;;12.90;9.33;;;18.00;65.90;;;;;;4969721;28;20429;-59
2024/03/20 12:12:29;;;;;;;12.27;8.67;;;18.00;66.60;;;;;;4977482;28;20325;-59
2024/03/20 12:14:55;;;;;;;15.83;9.87;;;17.60;66.80;;;;;;4972404;28;20509;-60
2024/03/20 12:17:24;;;;;;;13.93;9.03;;;17.90;66.30;;;;;;4973358;28;20217;-59
2024/03/20 12:19:50;;;;;;;13.33;9.60;;;17.90;66.80;;;;;;4970868;28;20206;-59
2024/03/20 12:22:16;;;;;;;13.77;8.90;;;17.80;67.00;;;;;;4972208;28;20433;-58
2024/03/20 12:24:42;;;;;;;11.33;7.40;;;18.00;67.00;;;;;;4972551;28;20653;-58
2024/03/20 12:27:12;;;;;;;13.80;8.90;;;18.00;68.00;;;;;;4971570;28;20644;-58
2024/03/20 12:29:38;;;;;;;12.90;10.00;;;17.90;66.80;;;;;;4973235;28;20179;-58
2024/03/20 12:32:04;;;;;;;16.70;9.50;;;17.90;66.80;;;;;;4973644;28;20831;-60
2024/03/20 12:34:29;;;;;;;12.10;9.10;;;17.90;67.90;;;;;;4973391;28;20187;-58